createdAt,value
2023-05-19T00:01:06.987Z,3.13
2023-05-19T00:03:34.299Z,2.47
2023-05-19T00:06:02.423Z,1.73
2023-05-19T00:08:32.121Z,1.83
2023-05-19T00:10:58.828Z,1.77
2023-05-19T00:13:25.567Z,1.88
2023-05-19T00:15:52.132Z,2.22
2023-05-19T00:18:23.551Z,1.88
2023-05-19T00:20:52.059Z,1.67
2023-05-19T00:23:18.378Z,1.75
2023-05-19T00:25:47.551Z,2.03
2023-05-19T00:28:13.893Z,1.58
2023-05-19T00:30:40.101Z,1.98
2023-05-19T00:33:06.595Z,1.63
2023-05-19T00:35:33.102Z,1.98
2023-05-19T00:38:00.411Z,2.05
2023-05-19T00:40:26.937Z,1.70
2023-05-19T00:42:53.400Z,2.13
2023-05-19T00:45:19.672Z,2.05
2023-05-19T00:47:48.486Z,2.25
2023-05-19T00:50:14.766Z,2.17
2023-05-19T00:52:41.068Z,2.42
2023-05-19T00:55:08.622Z,1.95
2023-05-19T00:57:34.989Z,1.70
2023-05-19T01:00:01.516Z,1.42
2023-05-19T01:02:31.657Z,1.77
2023-05-19T01:04:58.698Z,1.90
2023-05-19T01:07:25.334Z,2.00
2023-05-19T01:09:51.807Z,1.90
2023-05-19T01:12:18.229Z,1.55
2023-05-19T01:14:44.985Z,2.00
2023-05-19T01:17:31.314Z,1.63
2023-05-19T01:20:04.361Z,1.90
2023-05-19T01:23:00.413Z,2.05
2023-05-19T01:25:48.423Z,2.25
2023-05-19T01:28:33.429Z,2.05
2023-05-19T01:31:00.705Z,1.90
2023-05-19T01:33:28.946Z,2.42
2023-05-19T01:35:57.087Z,2.35
2023-05-19T01:38:24.895Z,1.95
2023-05-19T01:41:03.181Z,2.05
2023-05-19T01:43:29.682Z,1.90
2023-05-19T01:45:58.353Z,2.33
2023-05-19T01:48:24.945Z,1.95
2023-05-19T01:50:51.428Z,1.85
2023-05-19T01:53:17.671Z,1.67
2023-05-19T01:55:50.272Z,1.70
2023-05-19T01:58:28.377Z,1.75
2023-05-19T02:01:30.140Z,1.90
2023-05-19T02:04:03.044Z,1.83
2023-05-19T02:06:44.618Z,1.73
2023-05-19T02:09:24.441Z,1.70
2023-05-19T02:12:03.168Z,2.17
2023-05-19T02:14:39.155Z,2.15
2023-05-19T02:17:07.298Z,2.10
2023-05-19T02:19:39.157Z,1.85
2023-05-19T02:22:06.031Z,1.88
2023-05-19T02:24:37.331Z,2.10
2023-05-19T02:27:03.804Z,1.77
2023-05-19T02:29:30.213Z,2.13
2023-05-19T02:32:02.924Z,2.03
2023-05-19T02:34:29.292Z,1.60
2023-05-19T02:36:58.523Z,1.95
2023-05-19T02:39:25.593Z,1.80
2023-05-19T02:41:51.785Z,1.67
2023-05-19T02:44:18.164Z,2.10
2023-05-19T02:46:45.587Z,1.75
2023-05-19T02:49:12.175Z,2.00
2023-05-19T02:51:38.449Z,2.17
2023-05-19T02:54:04.989Z,1.90
2023-05-19T02:56:31.167Z,2.70
2023-05-19T02:58:58.078Z,1.50
2023-05-19T03:01:24.468Z,2.35
2023-05-19T03:03:50.777Z,1.58
2023-05-19T03:06:17.750Z,1.80
2023-05-19T03:08:44.578Z,2.15
2023-05-19T03:11:10.815Z,2.47
2023-05-19T03:13:36.962Z,2.00
2023-05-19T03:16:03.691Z,1.80
2023-05-19T03:18:30.193Z,1.70
2023-05-19T03:20:56.547Z,1.83
2023-05-19T03:23:22.791Z,1.70
2023-05-19T03:25:49.028Z,2.22
2023-05-19T03:28:15.607Z,2.15
2023-05-19T03:30:41.924Z,1.65
2023-05-19T03:33:08.396Z,2.00
2023-05-19T03:35:36.448Z,1.70
2023-05-19T03:38:03.841Z,2.17
2023-05-19T03:40:30.305Z,1.80
2023-05-19T03:42:56.638Z,2.03
2023-05-19T03:45:23.207Z,2.28
2023-05-19T03:47:52.215Z,1.70
2023-05-19T03:50:21.015Z,1.58
2023-05-19T03:52:50.767Z,1.90
2023-05-19T03:55:19.716Z,1.83
2023-05-19T03:57:45.933Z,2.33
2023-05-19T04:00:14.363Z,2.17
2023-05-19T04:02:40.858Z,2.03
2023-05-19T04:05:08.126Z,1.83
2023-05-19T04:07:36.490Z,1.60
2023-05-19T04:10:06.621Z,2.25
2023-05-19T04:12:35.815Z,1.98
2023-05-19T04:15:05.288Z,1.95
2023-05-19T04:17:31.810Z,1.70
2023-05-19T04:19:58.102Z,1.73
2023-05-19T04:22:26.166Z,2.00
2023-05-19T04:24:52.968Z,2.00
2023-05-19T04:27:19.194Z,1.70
2023-05-19T04:29:48.716Z,2.13
2023-05-19T04:32:17.068Z,1.63
2023-05-19T04:34:45.709Z,1.33
2023-05-19T04:37:19.266Z,2.05
2023-05-19T04:39:46.226Z,2.03
2023-05-19T04:42:13.195Z,1.83
2023-05-19T04:44:40.081Z,1.60
2023-05-19T04:47:10.078Z,1.50
2023-05-19T04:49:39.227Z,1.48
2023-05-19T04:52:13.674Z,1.50
2023-05-19T04:54:40.065Z,1.85
2023-05-19T04:57:06.727Z,2.13
2023-05-19T04:59:33.254Z,1.92
2023-05-19T05:01:59.709Z,1.67
2023-05-19T05:04:28.695Z,2.05
2023-05-19T05:06:55.045Z,1.83
2023-05-19T05:09:21.510Z,1.85
2023-05-19T05:11:48.106Z,1.55
2023-05-19T05:14:17.022Z,2.20
2023-05-19T05:16:43.684Z,1.92
2023-05-19T05:19:11.542Z,1.80
2023-05-19T05:21:40.503Z,1.90
2023-05-19T05:24:08.009Z,1.77
2023-05-19T05:26:37.863Z,1.70
2023-05-19T05:29:04.204Z,1.55
2023-05-19T05:31:31.232Z,2.15
2023-05-19T05:34:00.655Z,2.05
2023-05-19T05:36:27.061Z,2.08
2023-05-19T05:38:53.382Z,2.17
2023-05-19T05:41:19.755Z,2.10
2023-05-19T05:43:47.571Z,1.50
2023-05-19T05:46:13.807Z,2.00
2023-05-19T05:48:42.221Z,1.65
2023-05-19T05:51:09.769Z,1.75
2023-05-19T05:53:41.351Z,2.20
2023-05-19T05:56:08.250Z,2.30
2023-05-19T05:58:37.372Z,2.03
2023-05-19T06:01:10.798Z,1.95
2023-05-19T06:03:46.913Z,1.77
2023-05-19T06:06:13.307Z,2.08
2023-05-19T06:08:42.208Z,2.05
2023-05-19T06:11:09.850Z,2.53
2023-05-19T06:13:39.229Z,2.28
2023-05-19T06:16:05.864Z,2.20
2023-05-19T06:18:35.342Z,1.73
2023-05-19T06:21:01.536Z,2.00
2023-05-19T06:23:28.795Z,2.15
2023-05-19T06:25:56.525Z,1.75
2023-05-19T06:28:22.815Z,2.13
2023-05-19T06:30:50.197Z,1.80
2023-05-19T06:33:17.318Z,2.15
2023-05-19T06:35:43.507Z,2.28
2023-05-19T06:38:09.649Z,1.95
2023-05-19T06:40:38.269Z,2.15
2023-05-19T06:43:04.580Z,2.10
2023-05-19T06:45:30.715Z,1.98
2023-05-19T06:47:59.091Z,2.05
2023-05-19T06:50:25.486Z,2.20
2023-05-19T06:52:54.287Z,2.00
2023-05-19T06:55:24.261Z,2.28
2023-05-19T06:57:50.521Z,2.25
2023-05-19T07:00:19.965Z,1.73
2023-05-19T07:02:53.045Z,1.80
2023-05-19T07:05:20.136Z,1.88
2023-05-19T07:07:49.459Z,2.22
2023-05-19T07:10:17.964Z,2.10
2023-05-19T07:12:44.135Z,1.75
2023-05-19T07:15:10.861Z,2.28
2023-05-19T07:17:37.448Z,2.20
2023-05-19T07:20:06.549Z,1.92
2023-05-19T07:22:34.915Z,1.85
2023-05-19T07:25:01.127Z,3.00
2023-05-19T07:27:27.457Z,2.22
2023-05-19T07:29:54.156Z,1.80
2023-05-19T07:32:22.151Z,1.95
2023-05-19T07:34:48.498Z,2.40
2023-05-19T07:37:15.605Z,2.00
2023-05-19T07:39:44.540Z,1.85
2023-05-19T07:42:10.833Z,2.13
2023-05-19T07:44:37.150Z,1.60
2023-05-19T07:47:11.964Z,1.80
2023-05-19T07:49:40.678Z,1.45
2023-05-19T07:52:06.983Z,1.75
2023-05-19T07:54:34.575Z,2.65
2023-05-19T07:57:03.805Z,2.00
2023-05-19T07:59:30.067Z,2.17
2023-05-19T08:01:56.275Z,1.98
2023-05-19T08:04:22.622Z,2.50
2023-05-19T08:06:48.748Z,1.83
2023-05-19T08:09:15.032Z,1.88
2023-05-19T08:11:41.120Z,2.10
2023-05-19T08:14:07.321Z,2.00
2023-05-19T08:16:36.910Z,2.00
2023-05-19T08:19:04.994Z,2.03
2023-05-19T08:21:37.326Z,1.98
2023-05-19T08:24:03.981Z,1.85
2023-05-19T08:26:30.311Z,1.65
2023-05-19T08:29:01.570Z,1.88
2023-05-19T08:31:30.290Z,2.00
2023-05-19T08:33:56.750Z,2.28
2023-05-19T08:36:23.221Z,1.50
2023-05-19T08:38:49.459Z,2.08
2023-05-19T08:41:16.191Z,1.92
2023-05-19T08:43:44.688Z,2.13
2023-05-19T08:46:14.066Z,2.03
2023-05-19T08:48:42.487Z,2.95
2023-05-19T08:51:22.604Z,1.98
2023-05-19T08:53:51.517Z,2.35
2023-05-19T08:56:30.450Z,1.95
2023-05-19T08:59:01.143Z,1.45
2023-05-19T09:01:28.595Z,2.08
2023-05-19T09:03:55.492Z,1.50
2023-05-19T09:06:21.905Z,1.25
2023-05-19T09:08:48.140Z,1.25
2023-05-19T09:11:15.561Z,1.30
2023-05-19T09:13:41.835Z,1.48
2023-05-19T09:16:08.521Z,1.48
2023-05-19T09:18:40.951Z,1.23
2023-05-19T09:21:07.640Z,1.15
2023-05-19T09:23:34.060Z,0.93
2023-05-19T09:26:10.541Z,1.35
2023-05-19T09:28:37.360Z,1.20
2023-05-19T09:31:08.694Z,1.30
2023-05-19T09:33:36.510Z,1.20
2023-05-19T09:36:05.731Z,0.93
2023-05-19T09:38:32.174Z,1.13
2023-05-19T09:41:01.513Z,0.77
2023-05-19T09:43:28.991Z,0.93
2023-05-19T09:45:59.207Z,1.30
2023-05-19T09:48:27.366Z,1.13
2023-05-19T09:50:54.307Z,1.15
2023-05-19T09:53:22.134Z,0.80
2023-05-19T09:55:49.502Z,0.90
2023-05-19T09:58:18.993Z,1.20
2023-05-19T10:00:47.373Z,1.05
2023-05-19T10:03:13.706Z,0.90
2023-05-19T10:05:41.322Z,1.20
2023-05-19T10:08:13.677Z,0.70
2023-05-19T10:10:40.481Z,0.70
2023-05-19T10:13:10.110Z,0.93
2023-05-19T10:15:49.905Z,0.85
2023-05-19T10:18:25.989Z,0.70
2023-05-19T10:20:52.632Z,0.98
2023-05-19T10:23:18.922Z,1.27
2023-05-19T10:25:45.833Z,1.02
2023-05-19T10:28:14.828Z,1.00
2023-05-19T10:30:44.711Z,0.90
2023-05-19T10:33:18.925Z,1.00
2023-05-19T10:36:00.284Z,1.00
2023-05-19T10:38:36.118Z,0.80
2023-05-19T10:41:13.822Z,1.00
2023-05-19T10:43:39.994Z,0.93
2023-05-19T10:46:06.246Z,0.98
2023-05-19T10:48:38.634Z,1.20
2023-05-19T10:51:08.142Z,1.05
2023-05-19T10:53:34.788Z,1.10
2023-05-19T10:56:06.634Z,0.82
2023-05-19T10:58:44.948Z,1.15
2023-05-19T11:01:15.381Z,1.27
2023-05-19T11:03:53.026Z,1.00
2023-05-19T11:06:31.991Z,0.80
2023-05-19T11:09:00.302Z,0.93
2023-05-19T11:11:30.017Z,0.77
2023-05-19T11:13:56.912Z,1.00
2023-05-19T11:16:31.605Z,0.95
2023-05-19T11:19:03.563Z,1.25
2023-05-19T11:21:50.113Z,0.88
2023-05-19T11:24:50.687Z,1.00
2023-05-19T11:27:33.680Z,1.10
2023-05-19T11:30:12.047Z,0.85
2023-05-19T11:32:44.317Z,1.00
2023-05-19T11:35:10.774Z,0.75
2023-05-19T11:37:37.174Z,1.60
2023-05-19T11:40:07.217Z,0.95
2023-05-19T11:42:34.550Z,0.95
2023-05-19T11:45:05.619Z,0.88
2023-05-19T11:47:42.511Z,0.95
2023-05-19T11:50:20.673Z,0.80
2023-05-19T11:52:47.306Z,0.88
2023-05-19T11:55:17.020Z,1.05
2023-05-19T11:58:04.937Z,0.73
2023-05-19T12:00:40.442Z,0.88
2023-05-19T12:03:11.213Z,1.10
2023-05-19T12:05:43.497Z,0.95
2023-05-19T12:08:11.227Z,0.95
2023-05-19T12:10:38.255Z,0.88
2023-05-19T12:13:07.695Z,1.10
2023-05-19T12:15:42.234Z,1.45
2023-05-19T12:18:08.564Z,0.90
2023-05-19T12:20:35.492Z,0.80
2023-05-19T12:23:09.082Z,1.00
2023-05-19T12:25:41.617Z,0.82
2023-05-19T12:28:08.155Z,1.05
2023-05-19T12:30:35.349Z,1.10
2023-05-19T12:33:02.182Z,1.17
2023-05-19T12:35:31.556Z,1.23
2023-05-19T12:38:03.059Z,0.90
2023-05-19T12:40:31.959Z,0.90
2023-05-19T12:42:59.185Z,0.70
2023-05-19T12:45:27.618Z,1.30
2023-05-19T12:47:54.267Z,0.90
2023-05-19T12:50:20.633Z,1.20
2023-05-19T12:52:48.073Z,0.85
2023-05-19T12:55:16.455Z,1.20
2023-05-19T12:57:45.071Z,0.70
2023-05-19T13:00:17.244Z,1.05
2023-05-19T13:03:01.969Z,1.00
2023-05-19T13:05:30.087Z,1.00
2023-05-19T13:08:00.209Z,1.08
2023-05-19T13:10:27.384Z,1.02
2023-05-19T13:12:58.617Z,0.95
2023-05-19T13:15:26.966Z,1.00
2023-05-19T13:17:54.170Z,1.17
2023-05-19T13:20:21.369Z,1.20
2023-05-19T13:22:48.240Z,1.25
2023-05-19T13:25:17.168Z,1.20
2023-05-19T13:27:47.081Z,1.00
2023-05-19T13:30:15.919Z,1.10
2023-05-19T13:32:42.294Z,1.20
2023-05-19T13:35:09.480Z,1.10
2023-05-19T13:37:35.932Z,1.08
2023-05-19T13:40:05.957Z,1.13
2023-05-19T13:42:32.915Z,1.40
2023-05-19T13:44:59.211Z,1.20
2023-05-19T13:47:27.868Z,1.40
2023-05-19T13:49:54.151Z,1.23
2023-05-19T13:52:21.119Z,1.38
2023-05-19T13:54:49.140Z,1.20
2023-05-19T13:57:16.186Z,1.38
2023-05-19T13:59:57.605Z,1.00
2023-05-19T14:02:29.448Z,1.20
2023-05-19T14:04:55.778Z,1.40
2023-05-19T14:07:24.230Z,1.30
2023-05-19T14:09:51.700Z,0.95
2023-05-19T14:12:17.867Z,1.13
2023-05-19T14:14:44.469Z,1.42
2023-05-19T14:17:15.422Z,0.88
2023-05-19T14:19:41.723Z,1.00
2023-05-19T14:22:07.792Z,1.13
2023-05-19T14:24:34.631Z,1.23
2023-05-19T14:27:04.456Z,1.20
2023-05-19T14:29:30.871Z,1.30
2023-05-19T14:32:00.175Z,1.02
2023-05-19T14:34:26.576Z,1.02
2023-05-19T14:36:52.732Z,1.55
2023-05-19T14:39:22.959Z,1.35
2023-05-19T14:41:50.661Z,1.05
2023-05-19T14:44:16.880Z,1.15
2023-05-19T14:46:44.033Z,1.27
2023-05-19T14:49:13.241Z,1.05
2023-05-19T14:51:39.465Z,1.27
2023-05-19T14:54:06.851Z,1.20
2023-05-19T14:56:33.125Z,1.50
2023-05-19T14:58:59.306Z,1.10
2023-05-19T15:01:28.040Z,1.38
2023-05-19T15:03:54.264Z,1.13
2023-05-19T15:06:20.554Z,1.27
2023-05-19T15:08:46.988Z,1.10
2023-05-19T15:11:13.062Z,1.20
2023-05-19T15:13:39.215Z,1.30
2023-05-19T15:18:41.674Z,1.10
2023-05-19T15:21:07.929Z,1.27
2023-05-19T15:23:36.737Z,1.05
2023-05-19T15:26:02.989Z,1.27
2023-05-19T15:28:29.284Z,1.00
2023-05-19T15:30:55.708Z,1.20
2023-05-19T15:33:22.052Z,1.02
2023-05-19T15:35:51.253Z,1.10
2023-05-19T15:38:21.399Z,1.25
2023-05-19T15:40:47.841Z,1.02
2023-05-19T15:43:14.117Z,1.00
2023-05-19T15:45:40.645Z,1.15
2023-05-19T15:48:07.021Z,1.30
2023-05-19T15:50:33.571Z,1.02
2023-05-19T15:53:00.258Z,1.00
2023-05-19T15:55:26.927Z,1.05
2023-05-19T15:57:56.790Z,1.50
2023-05-19T16:00:23.447Z,1.13
2023-05-19T16:02:49.748Z,1.10
2023-05-19T16:05:16.261Z,1.10
2023-05-19T16:07:45.313Z,1.02
2023-05-19T16:10:14.340Z,1.10
2023-05-19T16:12:40.764Z,1.38
2023-05-19T16:15:13.154Z,1.45
2023-05-19T16:17:39.758Z,1.23
2023-05-19T16:20:06.766Z,1.48
2023-05-19T16:22:37.691Z,1.15
2023-05-19T16:25:04.403Z,1.17
2023-05-19T16:27:33.219Z,0.95
2023-05-19T16:30:00.808Z,1.20
2023-05-19T16:32:27.040Z,0.98
2023-05-19T16:34:53.165Z,1.10
2023-05-19T16:37:19.400Z,1.38
2023-05-19T16:39:47.835Z,1.40
2023-05-19T16:42:14.031Z,1.38
2023-05-19T16:44:41.970Z,1.50
2023-05-19T16:47:10.054Z,1.38
2023-05-19T16:49:37.025Z,1.10
2023-05-19T16:52:03.835Z,1.10
2023-05-19T16:54:30.029Z,0.98
2023-05-19T16:56:57.250Z,0.75
2023-05-19T16:59:25.919Z,1.20
2023-05-19T17:01:52.061Z,1.35
2023-05-19T17:04:18.213Z,1.33
2023-05-19T17:06:46.290Z,0.90
2023-05-19T17:09:12.784Z,1.13
2023-05-19T17:11:39.111Z,1.00
2023-05-19T17:14:08.852Z,1.20
2023-05-19T17:16:36.937Z,1.38
2023-05-19T17:19:03.912Z,1.70
2023-05-19T17:21:34.113Z,1.00
2023-05-19T17:24:03.200Z,1.35
2023-05-19T17:26:29.306Z,1.30
2023-05-19T17:28:55.929Z,1.40
2023-05-19T17:31:22.512Z,1.50
2023-05-19T17:33:48.651Z,1.27
2023-05-19T17:36:21.124Z,1.58
2023-05-19T17:38:47.417Z,1.30
2023-05-19T17:41:13.715Z,1.50
2023-05-19T17:43:43.306Z,1.20
2023-05-19T17:46:09.753Z,1.58
2023-05-19T17:48:36.032Z,1.35
2023-05-19T17:51:06.640Z,1.52
2023-05-19T17:53:33.795Z,1.55
2023-05-19T17:56:01.339Z,1.42
2023-05-19T17:58:28.352Z,1.33
2023-05-19T18:00:55.082Z,1.25
2023-05-19T18:03:22.149Z,1.88
2023-05-19T18:05:54.082Z,1.30
2023-05-19T18:08:20.454Z,1.65
2023-05-19T18:10:48.463Z,1.45
2023-05-19T18:13:15.581Z,1.40
2023-05-19T18:15:42.034Z,1.90
2023-05-19T18:18:12.479Z,1.63
2023-05-19T18:20:43.311Z,1.60
2023-05-19T18:23:09.613Z,1.58
2023-05-19T18:25:38.470Z,1.40
2023-05-19T18:28:07.034Z,1.50
2023-05-19T18:30:33.535Z,1.48
2023-05-19T18:33:03.142Z,1.55
2023-05-19T18:35:33.513Z,1.63
2023-05-19T18:38:00.426Z,1.67
2023-05-19T18:40:26.884Z,1.38
2023-05-19T18:42:53.155Z,1.30
2023-05-19T18:45:20.500Z,1.65
2023-05-19T18:47:46.714Z,1.33
2023-05-19T18:50:13.879Z,1.90
2023-05-19T18:52:40.115Z,1.85
2023-05-19T18:55:06.929Z,1.40
2023-05-19T18:57:33.068Z,1.65
2023-05-19T18:59:59.420Z,1.35
2023-05-19T19:02:25.777Z,1.27
2023-05-19T19:04:54.488Z,1.80
2023-05-19T19:07:20.569Z,1.60
2023-05-19T19:09:49.788Z,1.58
2023-05-19T19:12:16.835Z,1.55
2023-05-19T19:14:44.537Z,2.45
2023-05-19T19:17:10.736Z,1.52
2023-05-19T19:19:36.966Z,1.50
2023-05-19T19:22:03.387Z,2.28
2023-05-19T19:24:31.050Z,1.63
2023-05-19T19:26:58.835Z,1.65
2023-05-19T19:29:25.009Z,1.80
2023-05-19T19:31:51.475Z,1.90
2023-05-19T19:34:23.025Z,1.70
2023-05-19T19:39:30.721Z,1.65
2023-05-19T19:41:56.911Z,1.67
2023-05-19T19:44:23.494Z,1.92
2023-05-19T19:46:50.280Z,1.88
2023-05-19T19:49:16.503Z,1.48
2023-05-19T19:51:45.513Z,1.95
2023-05-19T19:54:11.764Z,1.63
2023-05-19T19:56:37.937Z,1.85
2023-05-19T19:59:07.222Z,1.90
2023-05-19T20:01:33.416Z,2.05
2023-05-19T20:03:59.846Z,1.67
2023-05-19T20:06:26.124Z,1.40
2023-05-19T20:08:53.507Z,1.77
2023-05-19T20:11:22.458Z,1.48
2023-05-19T20:13:48.618Z,1.50
2023-05-19T20:16:14.853Z,1.70
2023-05-19T20:18:53.321Z,1.58
2023-05-19T20:21:19.638Z,1.50
2023-05-19T20:23:45.784Z,1.50
2023-05-19T20:26:13.409Z,2.10
2023-05-19T20:28:40.007Z,1.48
2023-05-19T20:31:06.646Z,2.00
2023-05-19T20:33:32.796Z,1.60
2023-05-19T20:35:59.151Z,1.40
2023-05-19T20:38:28.384Z,1.58
2023-05-19T20:40:55.284Z,2.20
2023-05-19T20:43:23.017Z,1.73
2023-05-19T20:45:52.084Z,1.73
2023-05-19T20:48:18.322Z,1.60
2023-05-19T20:50:50.181Z,1.80
2023-05-19T20:53:16.746Z,1.52
2023-05-19T20:55:46.150Z,1.67
2023-05-19T20:58:13.243Z,1.60
2023-05-19T21:00:42.459Z,1.38
2023-05-19T21:03:08.630Z,1.50
2023-05-19T21:05:38.750Z,1.33
2023-05-19T21:08:05.170Z,1.70
2023-05-19T21:10:31.639Z,1.95
2023-05-19T21:12:58.451Z,1.50
2023-05-19T21:15:24.738Z,1.90
2023-05-19T21:17:51.046Z,1.95
2023-05-19T21:20:18.923Z,1.70
2023-05-19T21:22:45.389Z,1.83
2023-05-19T21:25:11.744Z,1.77
2023-05-19T21:30:10.248Z,1.63
2023-05-19T21:32:36.348Z,2.58
2023-05-19T21:35:05.473Z,2.05
2023-05-19T21:37:33.647Z,2.13
2023-05-19T21:40:00.276Z,1.83
2023-05-19T21:42:26.417Z,1.90
2023-05-19T21:44:55.711Z,1.77
2023-05-19T21:47:21.867Z,1.85
2023-05-19T21:49:48.013Z,1.90
2023-05-19T21:52:14.428Z,1.70
2023-05-19T21:54:40.704Z,1.60
2023-05-19T21:57:06.815Z,1.80
2023-05-19T21:59:35.323Z,1.80
2023-05-19T22:02:01.573Z,2.20
2023-05-19T22:04:31.165Z,2.75
2023-05-19T22:07:01.390Z,1.85
2023-05-19T22:09:28.256Z,2.65
2023-05-19T22:11:54.408Z,1.88
2023-05-19T22:14:23.033Z,1.70
2023-05-19T22:16:49.384Z,2.17
2023-05-19T22:19:16.002Z,1.88
2023-05-19T22:21:42.468Z,2.03
2023-05-19T22:24:11.596Z,1.95
2023-05-19T22:26:42.129Z,1.83
2023-05-19T22:29:11.056Z,1.85
2023-05-19T22:31:37.245Z,2.08
2023-05-19T22:34:03.497Z,2.05
2023-05-19T22:36:31.034Z,2.00
2023-05-19T22:38:57.327Z,1.85
2023-05-19T22:41:23.497Z,1.80
2023-05-19T22:43:52.770Z,1.73
2023-05-19T22:46:19.054Z,2.00
2023-05-19T22:48:45.415Z,2.17
2023-05-19T22:53:44.968Z,1.88
2023-05-19T22:56:11.202Z,2.47
2023-05-19T22:58:37.560Z,2.00
2023-05-19T23:01:07.220Z,2.10
2023-05-19T23:03:33.534Z,2.13
2023-05-19T23:06:03.157Z,1.75
2023-05-19T23:08:29.300Z,1.95
2023-05-19T23:11:00.166Z,2.15
2023-05-19T23:13:26.545Z,2.35
2023-05-19T23:15:52.844Z,2.08
2023-05-19T23:18:19.164Z,2.10
2023-05-19T23:20:47.939Z,2.08
2023-05-19T23:23:15.170Z,2.17
2023-05-19T23:25:47.557Z,2.30
2023-05-19T23:28:13.731Z,2.00
2023-05-19T23:30:40.020Z,1.90
2023-05-19T23:33:06.343Z,2.10
2023-05-19T23:35:32.833Z,1.70
2023-05-19T23:38:04.506Z,2.40
2023-05-19T23:40:31.138Z,2.15
2023-05-19T23:42:57.425Z,2.60
2023-05-19T23:45:23.732Z,2.30
2023-05-19T23:47:50.077Z,2.63
2023-05-19T23:50:19.374Z,2.05
2023-05-19T23:52:47.496Z,1.98
2023-05-19T23:55:14.618Z,2.45
2023-05-19T23:57:41.364Z,2.08
